createdAt,value
2023-05-12T00:01:54.653Z,4.68
2023-05-12T00:04:22.198Z,5.30
2023-05-12T00:06:49.683Z,5.30
2023-05-12T00:09:17.050Z,6.22
2023-05-12T00:11:44.550Z,5.40
2023-05-12T00:14:11.952Z,5.82
2023-05-12T00:16:40.825Z,6.50
2023-05-12T00:19:09.006Z,7.47
2023-05-12T00:21:36.463Z,7.47
2023-05-12T00:24:04.125Z,7.97
2023-05-12T00:26:31.882Z,8.10
2023-05-12T00:28:59.199Z,7.95
2023-05-12T00:31:26.752Z,8.13
2023-05-12T00:33:55.204Z,7.63
2023-05-12T00:36:23.116Z,7.47
2023-05-12T00:38:50.742Z,7.45
2023-05-12T00:41:18.469Z,7.35
2023-05-12T00:43:46.389Z,8.15
2023-05-12T00:46:14.727Z,8.65
2023-05-12T00:48:42.233Z,9.27
2023-05-12T00:51:10.808Z,9.55
2023-05-12T00:53:48.147Z,9.50
2023-05-12T00:56:21.849Z,9.18
2023-05-12T00:58:49.292Z,9.20
2023-05-12T01:01:18.849Z,9.80
2023-05-12T01:03:49.299Z,9.98
2023-05-12T01:06:28.977Z,12.07
2023-05-12T01:08:58.080Z,29.73
2023-05-12T01:11:25.547Z,22.13
2023-05-12T01:13:53.067Z,13.38
2023-05-12T01:16:26.334Z,11.00
2023-05-12T01:18:56.103Z,10.30
2023-05-12T01:21:23.890Z,9.70
2023-05-12T01:23:58.441Z,10.63
2023-05-12T01:28:58.645Z,11.38
2023-05-12T01:31:28.096Z,10.45
2023-05-12T01:33:56.199Z,11.38
2023-05-12T01:36:26.729Z,12.63
2023-05-12T01:38:55.716Z,11.45
2023-05-12T01:41:25.075Z,12.55
2023-05-12T01:43:52.767Z,12.38
2023-05-12T01:46:21.058Z,10.98
2023-05-12T01:48:48.706Z,12.75
2023-05-12T01:51:16.764Z,12.52
2023-05-12T01:53:44.262Z,12.68
2023-05-12T01:56:11.835Z,12.00
2023-05-12T01:58:39.450Z,13.10
2023-05-12T02:01:07.556Z,13.30
2023-05-12T02:03:35.103Z,14.55
2023-05-12T02:06:02.625Z,15.35
2023-05-12T02:08:30.383Z,16.40
2023-05-12T02:11:06.368Z,15.70
2023-05-12T02:13:34.700Z,15.05
2023-05-12T02:16:05.992Z,15.60
2023-05-12T02:18:36.926Z,17.00
2023-05-12T02:21:18.937Z,15.35
2023-05-12T02:23:48.103Z,17.48
2023-05-12T02:26:16.282Z,16.85
2023-05-12T02:28:51.314Z,17.58
2023-05-12T02:31:39.490Z,16.25
2023-05-12T02:34:27.383Z,16.75
2023-05-12T02:39:56.936Z,16.30
2023-05-12T02:42:25.230Z,16.83
2023-05-12T02:45:01.554Z,15.55
2023-05-12T02:47:33.407Z,18.00
2023-05-12T02:50:01.465Z,17.77
2023-05-12T02:52:29.141Z,19.33
2023-05-12T02:54:59.825Z,15.80
2023-05-12T02:57:38.574Z,15.70
2023-05-12T03:00:12.218Z,15.20
2023-05-12T03:02:41.717Z,14.23
2023-05-12T03:05:09.453Z,16.17
2023-05-12T03:07:37.702Z,17.23
2023-05-12T03:10:06.861Z,16.20
2023-05-12T03:12:34.438Z,15.32
2023-05-12T03:15:01.912Z,15.68
2023-05-12T03:17:29.782Z,16.80
2023-05-12T03:20:00.084Z,15.23
2023-05-12T03:22:27.549Z,16.75
2023-05-12T03:24:57.510Z,16.75
2023-05-12T03:27:25.081Z,17.88
2023-05-12T03:29:53.286Z,19.00
2023-05-12T03:32:20.939Z,18.77
2023-05-12T03:34:48.802Z,20.67
2023-05-12T03:37:22.095Z,17.95
2023-05-12T03:40:00.714Z,20.27
2023-05-12T03:42:38.220Z,16.50
2023-05-12T03:45:07.101Z,17.90
2023-05-12T03:47:37.432Z,17.52
2023-05-12T03:50:05.730Z,17.73
2023-05-12T03:52:33.571Z,18.80
2023-05-12T03:55:09.370Z,18.55
2023-05-12T03:57:37.860Z,20.13
2023-05-12T04:00:20.749Z,20.92
2023-05-12T04:02:50.986Z,18.98
2023-05-12T04:05:28.271Z,17.90
2023-05-12T04:07:57.271Z,17.80
2023-05-12T04:10:24.974Z,17.17
2023-05-12T04:13:03.897Z,16.35
2023-05-12T04:15:35.430Z,15.75
2023-05-12T04:18:04.200Z,16.55
2023-05-12T04:20:35.817Z,15.55
2023-05-12T04:23:03.437Z,16.33
2023-05-12T04:25:42.835Z,15.82
2023-05-12T04:28:13.171Z,18.08
2023-05-12T04:30:42.530Z,17.00
2023-05-12T04:33:10.752Z,15.07
2023-05-12T04:35:39.062Z,16.23
2023-05-12T04:38:12.644Z,16.27
2023-05-12T04:40:46.793Z,17.52
2023-05-12T04:45:45.667Z,15.50
2023-05-12T04:48:13.125Z,17.83
2023-05-12T04:50:42.590Z,14.77
2023-05-12T04:53:11.333Z,15.50
2023-05-12T04:55:47.391Z,14.85
2023-05-12T04:58:17.132Z,15.38
2023-05-12T05:00:44.817Z,15.85
2023-05-12T05:03:14.297Z,14.77
2023-05-12T05:06:07.525Z,13.80
2023-05-12T05:08:42.629Z,13.68
2023-05-12T05:11:16.212Z,13.23
2023-05-12T05:13:59.044Z,15.63
2023-05-12T05:16:48.575Z,13.63
2023-05-12T05:19:40.344Z,14.20
2023-05-12T05:22:16.234Z,14.27
2023-05-12T05:24:47.088Z,14.27
2023-05-12T05:27:14.493Z,13.55
2023-05-12T05:29:42.171Z,13.80
2023-05-12T05:32:09.756Z,15.00
2023-05-12T05:34:39.767Z,15.13
2023-05-12T05:37:07.206Z,16.17
2023-05-12T05:39:34.649Z,14.73
2023-05-12T05:42:04.180Z,15.73
2023-05-12T05:44:45.370Z,14.80
2023-05-12T05:47:15.199Z,15.18
2023-05-12T05:49:45.038Z,12.95
2023-05-12T05:52:13.587Z,14.40
2023-05-12T05:54:41.440Z,14.30
2023-05-12T05:57:32.497Z,13.80
2023-05-12T06:00:10.048Z,13.60
2023-05-12T06:02:48.761Z,12.52
2023-05-12T06:05:27.225Z,12.25
2023-05-12T06:08:30.445Z,13.13
2023-05-12T06:11:04.199Z,11.73
2023-05-12T06:20:39.136Z,13.50
2023-05-12T06:26:23.308Z,12.57
2023-05-12T06:29:12.437Z,12.32
2023-05-12T06:31:42.510Z,11.60
2023-05-12T06:34:10.288Z,10.60
2023-05-12T06:37:17.522Z,10.52
2023-05-12T06:39:48.196Z,10.82
2023-05-12T06:42:35.825Z,12.52
2023-05-12T06:45:45.796Z,9.82
2023-05-12T06:48:35.904Z,8.82
2023-05-12T06:51:04.286Z,9.73
2023-05-12T06:57:05.350Z,9.18
2023-05-12T06:59:46.670Z,8.38
2023-05-12T07:02:29.435Z,8.73
2023-05-12T07:05:05.469Z,9.05
2023-05-12T07:07:32.790Z,8.30
2023-05-12T07:10:30.063Z,8.38
2023-05-12T07:13:06.909Z,8.07
2023-05-12T07:15:40.693Z,8.10
2023-05-12T07:18:08.398Z,8.95
2023-05-12T07:20:38.175Z,7.85
2023-05-12T07:23:09.440Z,7.45
2023-05-12T07:25:37.905Z,7.03
2023-05-12T07:28:07.845Z,7.20
2023-05-12T07:30:42.121Z,5.28
2023-05-12T07:33:24.132Z,4.88
2023-05-12T07:35:54.668Z,3.85
2023-05-12T07:38:23.054Z,4.95
2023-05-12T07:40:56.242Z,3.45
2023-05-12T07:43:46.853Z,3.75
2023-05-12T07:46:15.221Z,3.65
2023-05-12T07:48:52.324Z,4.90
2023-05-12T07:51:23.111Z,2.95
2023-05-12T07:53:55.311Z,2.80
2023-05-12T07:56:22.764Z,3.78
2023-05-12T07:58:51.653Z,4.18
2023-05-12T08:01:19.624Z,3.50
2023-05-12T08:03:47.382Z,2.45
2023-05-12T08:06:14.909Z,2.65
2023-05-12T08:08:48.832Z,3.10
2023-05-12T08:11:16.504Z,2.92
2023-05-12T08:13:58.145Z,2.78
2023-05-12T08:16:50.275Z,2.42
2023-05-12T08:19:18.057Z,2.60
2023-05-12T08:21:47.184Z,2.35
2023-05-12T08:24:16.194Z,2.38
2023-05-12T08:26:46.642Z,2.58
2023-05-12T08:29:16.093Z,2.78
2023-05-12T08:31:43.754Z,1.75
2023-05-12T08:34:11.828Z,2.20
2023-05-12T08:36:52.661Z,3.03
2023-05-12T08:39:20.895Z,2.70
2023-05-12T08:42:10.928Z,2.15
2023-05-12T08:44:46.731Z,2.13
2023-05-12T08:47:15.629Z,2.17
2023-05-12T08:49:44.109Z,2.13
2023-05-12T08:52:18.952Z,2.10
2023-05-12T08:54:55.962Z,2.30
2023-05-12T08:57:25.690Z,2.25
2023-05-12T08:59:56.245Z,2.40
2023-05-12T09:02:30.907Z,2.10
2023-05-12T09:05:07.967Z,2.22
2023-05-12T09:07:47.303Z,2.20
2023-05-12T09:10:34.636Z,1.90
2023-05-12T09:13:28.946Z,1.90
2023-05-12T09:15:59.911Z,2.05
2023-05-12T09:18:44.334Z,1.52
2023-05-12T09:21:12.819Z,1.70
2023-05-12T09:23:40.947Z,1.80
2023-05-12T09:26:10.484Z,1.38
2023-05-12T09:28:38.787Z,1.42
2023-05-12T09:31:19.335Z,1.90
2023-05-12T09:33:55.772Z,1.80
2023-05-12T09:36:25.985Z,1.77
2023-05-12T09:39:05.365Z,2.13
2023-05-12T09:41:37.637Z,1.90
2023-05-12T09:44:08.612Z,1.60
2023-05-12T09:46:41.022Z,1.77
2023-05-12T09:49:09.521Z,1.50
2023-05-12T09:51:44.921Z,1.70
2023-05-12T09:54:24.183Z,1.60
2023-05-12T09:56:53.029Z,1.98
2023-05-12T09:59:28.876Z,1.95
2023-05-12T10:02:02.920Z,1.58
2023-05-12T10:04:45.529Z,1.83
2023-05-12T10:07:15.430Z,1.42
2023-05-12T10:09:45.514Z,2.45
2023-05-12T10:12:14.964Z,2.63
2023-05-12T10:14:44.249Z,2.20
2023-05-12T10:17:19.668Z,2.00
2023-05-12T10:19:54.472Z,2.42
2023-05-12T10:22:22.762Z,2.50
2023-05-12T10:24:51.752Z,2.55
2023-05-12T10:27:22.817Z,2.63
2023-05-12T10:29:53.660Z,1.90
2023-05-12T10:32:24.231Z,1.88
2023-05-12T10:34:53.854Z,1.70
2023-05-12T10:37:23.501Z,2.10
2023-05-12T10:39:52.517Z,1.90
2023-05-12T10:42:34.135Z,2.03
2023-05-12T10:45:04.824Z,1.90
2023-05-12T10:47:52.083Z,2.15
2023-05-12T10:53:50.058Z,1.92
2023-05-12T10:56:45.710Z,2.80
2023-05-12T11:02:36.018Z,3.38
2023-05-12T11:05:13.191Z,2.45
2023-05-12T11:10:15.535Z,2.78
2023-05-12T11:12:50.886Z,1.98
2023-05-12T11:15:21.896Z,2.03
2023-05-12T11:17:50.272Z,2.40
2023-05-12T11:20:28.062Z,1.85
2023-05-12T11:22:58.185Z,2.85
2023-05-12T11:25:30.897Z,1.95
2023-05-12T11:27:59.734Z,2.38
2023-05-12T11:30:34.910Z,2.53
2023-05-12T11:33:11.422Z,2.53
2023-05-12T11:35:39.023Z,2.20
2023-05-12T11:38:18.367Z,1.52
2023-05-12T11:40:47.696Z,1.65
2023-05-12T11:43:38.574Z,3.10
2023-05-12T11:46:12.186Z,3.47
2023-05-12T11:48:40.010Z,1.95
2023-05-12T11:51:12.379Z,4.65
2023-05-12T11:57:14.455Z,1.73
2023-05-12T11:59:45.815Z,2.28
2023-05-12T12:02:28.271Z,2.97
2023-05-12T12:05:02.147Z,3.22
2023-05-12T12:07:57.129Z,2.30
2023-05-12T12:10:29.875Z,2.45
2023-05-12T12:13:09.370Z,1.75
2023-05-12T12:15:44.325Z,1.58
2023-05-12T12:18:12.542Z,1.70
2023-05-12T12:20:52.208Z,1.50
2023-05-12T12:23:27.132Z,1.85
2023-05-12T12:26:00.871Z,2.08
2023-05-12T12:28:43.972Z,2.13
2023-05-12T12:31:12.045Z,2.17
2023-05-12T12:33:45.501Z,2.60
2023-05-12T12:36:22.546Z,1.90
2023-05-12T12:39:05.683Z,2.17
2023-05-12T12:41:36.942Z,4.30
2023-05-12T12:44:05.690Z,2.50
2023-05-12T12:46:57.925Z,2.20
2023-05-12T12:49:49.691Z,2.60
2023-05-12T12:52:58.686Z,2.65
2023-05-12T12:55:26.835Z,2.67
2023-05-12T13:01:16.967Z,3.05
2023-05-12T13:07:04.292Z,4.00
2023-05-12T13:09:32.326Z,3.78
2023-05-12T13:12:08.396Z,3.58
2023-05-12T13:14:39.022Z,3.95
2023-05-12T13:17:08.283Z,4.10
2023-05-12T13:19:47.367Z,3.90
2023-05-12T13:22:15.066Z,3.85
2023-05-12T13:24:42.779Z,3.55
2023-05-12T13:27:10.619Z,3.45
2023-05-12T13:29:40.723Z,4.72
2023-05-12T13:32:54.797Z,4.30
2023-05-12T13:36:21.813Z,5.45
2023-05-12T13:38:52.254Z,5.47
2023-05-12T13:41:20.033Z,6.00
2023-05-12T13:43:50.422Z,7.15
2023-05-12T13:46:26.051Z,6.45
2023-05-12T13:49:02.268Z,5.80
2023-05-12T13:58:05.140Z,6.43
2023-05-12T14:00:42.624Z,6.00
2023-05-12T14:03:20.143Z,8.13
2023-05-12T14:06:27.191Z,7.35
2023-05-12T14:08:54.972Z,7.60
2023-05-12T14:11:26.433Z,8.55
2023-05-12T14:13:54.081Z,8.00
2023-05-12T14:16:21.810Z,8.05
2023-05-12T14:18:50.867Z,9.02
2023-05-12T14:21:18.301Z,9.00
2023-05-12T14:23:46.169Z,9.68
2023-05-12T14:26:17.773Z,10.60
2023-05-12T14:28:45.835Z,10.38
2023-05-12T14:31:32.727Z,9.25
2023-05-12T14:34:00.682Z,11.65
2023-05-12T14:36:29.373Z,10.48
2023-05-12T14:38:58.170Z,10.50
2023-05-12T14:41:25.790Z,10.50
2023-05-12T14:43:56.466Z,11.32
2023-05-12T14:46:26.048Z,10.05
2023-05-12T14:48:53.862Z,12.45
2023-05-12T14:51:23.757Z,11.18
2023-05-12T14:59:54.352Z,8.50
2023-05-12T15:02:27.586Z,11.68
2023-05-12T15:06:04.589Z,10.77
2023-05-12T15:08:32.946Z,12.07
2023-05-12T15:13:48.653Z,10.45
2023-05-12T15:17:18.012Z,12.40
2023-05-12T15:20:03.029Z,11.75
2023-05-12T15:22:45.291Z,12.50
2023-05-12T15:28:35.166Z,11.38
2023-05-12T15:31:19.165Z,12.30
2023-05-12T15:33:48.030Z,11.75
2023-05-12T15:39:37.029Z,12.48
2023-05-12T15:42:33.277Z,12.38
2023-05-12T15:45:04.732Z,9.63
2023-05-12T15:56:53.214Z,12.68
2023-05-12T15:59:54.060Z,13.30
2023-05-12T16:02:45.239Z,14.90
2023-05-12T16:05:38.885Z,12.38
2023-05-12T16:08:12.056Z,12.63
2023-05-12T16:13:29.463Z,12.80
2023-05-12T16:15:58.022Z,13.32
2023-05-12T16:18:38.180Z,13.52
2023-05-12T16:21:39.186Z,11.57
2023-05-12T16:27:10.259Z,11.45
2023-05-12T16:29:39.341Z,12.13
2023-05-12T16:40:29.251Z,11.68
2023-05-12T16:40:54.787Z,11.90
2023-05-12T16:43:38.833Z,11.68
2023-05-12T16:46:11.549Z,11.65
2023-05-12T16:48:39.458Z,11.93
2023-05-12T16:51:11.225Z,11.70
2023-05-12T16:54:03.906Z,12.32
2023-05-12T16:56:36.373Z,11.60
2023-05-12T16:59:04.408Z,12.40
2023-05-12T17:01:34.152Z,13.30
2023-05-12T17:04:02.597Z,13.00
2023-05-12T17:07:11.741Z,11.27
2023-05-12T17:09:31.470Z,13.07
2023-05-12T17:11:59.404Z,13.75
2023-05-12T17:14:37.359Z,12.32
2023-05-12T17:17:07.931Z,12.80
2023-05-12T17:19:42.157Z,14.60
2023-05-12T17:22:43.224Z,13.73
2023-05-12T17:25:19.250Z,13.07
2023-05-12T17:31:01.571Z,12.60
2023-05-12T17:33:47.377Z,12.05
2023-05-12T17:36:27.143Z,12.25
2023-05-12T17:38:57.872Z,12.75
2023-05-12T17:41:28.370Z,14.30
2023-05-12T17:46:56.777Z,13.25
2023-05-12T17:50:00.589Z,12.20
2023-05-12T17:52:46.646Z,14.48
2023-05-12T17:55:17.668Z,12.45
2023-05-12T17:57:45.871Z,12.98
2023-05-12T18:00:24.753Z,15.82
2023-05-12T18:02:52.433Z,13.88
2023-05-12T18:05:20.140Z,14.00
2023-05-12T18:07:47.807Z,15.57
2023-05-12T18:10:15.169Z,15.30
2023-05-12T18:12:42.615Z,15.25
2023-05-12T18:15:11.099Z,16.38
2023-05-12T18:17:38.546Z,15.80
2023-05-12T18:20:06.940Z,13.13
2023-05-12T18:22:35.857Z,14.93
2023-05-12T18:25:03.153Z,14.75
2023-05-12T18:27:30.603Z,14.38
2023-05-12T18:29:58.694Z,14.77
2023-05-12T18:32:33.745Z,14.65
2023-05-12T18:35:06.096Z,15.15
2023-05-12T18:37:36.581Z,15.27
2023-05-12T18:40:28.386Z,15.32
2023-05-12T18:42:56.259Z,15.18
2023-05-12T18:45:25.595Z,15.60
2023-05-12T18:48:00.744Z,15.90
2023-05-12T18:50:41.623Z,13.95
2023-05-12T18:53:11.954Z,15.38
2023-05-12T18:55:39.602Z,14.65
2023-05-12T18:58:11.475Z,13.50
2023-05-12T19:00:39.139Z,15.23
2023-05-12T19:03:07.035Z,14.35
2023-05-12T19:05:34.565Z,13.20
2023-05-12T19:08:06.654Z,14.77
2023-05-12T19:10:55.340Z,12.95
2023-05-12T19:13:24.326Z,14.00
2023-05-12T19:16:31.407Z,16.45
2023-05-12T19:19:03.572Z,14.70
2023-05-12T19:21:40.561Z,15.27
2023-05-12T19:24:18.400Z,13.45
2023-05-12T19:26:46.194Z,13.38
2023-05-12T19:29:17.901Z,14.23
2023-05-12T19:31:50.136Z,14.05
2023-05-12T19:34:44.605Z,14.10
2023-05-12T19:37:20.235Z,14.98
2023-05-12T19:42:40.025Z,13.90
2023-05-12T19:45:11.007Z,16.58
2023-05-12T19:47:38.488Z,15.30
2023-05-12T19:50:06.471Z,16.08
2023-05-12T19:52:34.433Z,14.38
2023-05-12T19:55:08.719Z,13.73
2023-05-12T19:57:37.767Z,14.07
2023-05-12T20:00:06.036Z,14.10
2023-05-12T20:02:46.600Z,13.52
2023-05-12T20:05:14.399Z,13.48
2023-05-12T20:07:44.418Z,12.23
2023-05-12T20:10:13.027Z,12.13
2023-05-12T20:12:40.348Z,13.43
2023-05-12T20:15:08.826Z,13.55
2023-05-12T20:17:36.480Z,13.68
2023-05-12T20:20:04.315Z,14.63
2023-05-12T20:22:31.828Z,14.75
2023-05-12T20:25:04.332Z,12.32
2023-05-12T20:27:32.808Z,12.52
2023-05-12T20:30:00.357Z,11.73
2023-05-12T20:32:27.772Z,13.23
2023-05-12T20:34:55.359Z,12.80
2023-05-12T20:37:25.446Z,12.63
2023-05-12T20:39:54.265Z,14.10
2023-05-12T20:42:22.068Z,14.38
2023-05-12T20:44:50.004Z,14.63
2023-05-12T20:47:17.316Z,15.07
2023-05-12T20:49:46.257Z,12.77
2023-05-12T20:52:13.752Z,13.98
2023-05-12T20:54:41.351Z,13.43
2023-05-12T20:57:10.226Z,13.23
2023-05-12T20:59:40.879Z,12.88
2023-05-12T21:02:08.325Z,13.40
2023-05-12T21:04:36.179Z,13.43
2023-05-12T21:07:03.977Z,13.75
2023-05-12T21:09:34.623Z,14.13
2023-05-12T21:12:02.056Z,14.18
2023-05-12T21:14:29.584Z,15.27
2023-05-12T21:16:57.129Z,14.82
2023-05-12T21:19:24.532Z,15.07
2023-05-12T21:21:51.974Z,13.70
2023-05-12T21:24:19.436Z,14.05
2023-05-12T21:26:48.385Z,14.15
2023-05-12T21:29:16.347Z,16.35
2023-05-12T21:31:43.917Z,14.38
2023-05-12T21:34:11.562Z,18.33
2023-05-12T21:36:40.309Z,14.13
2023-05-12T21:39:08.001Z,15.43
2023-05-12T21:41:41.392Z,16.05
2023-05-12T21:44:11.107Z,14.07
2023-05-12T21:46:38.966Z,15.23
2023-05-12T21:49:06.499Z,18.75
2023-05-12T21:51:34.052Z,15.35
2023-05-12T21:54:01.632Z,14.63
2023-05-12T21:56:29.996Z,13.82
2023-05-12T21:58:57.450Z,14.65
2023-05-12T22:01:24.934Z,13.98
2023-05-12T22:03:53.471Z,14.63
2023-05-12T22:06:21.295Z,17.70
2023-05-12T22:08:48.811Z,16.05
2023-05-12T22:11:21.305Z,11.57
2023-05-12T22:13:51.432Z,15.93
2023-05-12T22:16:31.091Z,14.15
2023-05-12T22:19:03.473Z,13.75
2023-05-12T22:21:36.237Z,15.05
2023-05-12T22:24:03.986Z,14.40
2023-05-12T22:26:34.795Z,13.55
2023-05-12T22:29:02.619Z,13.73
2023-05-12T22:31:30.655Z,12.40
2023-05-12T22:33:58.477Z,12.82
2023-05-12T22:36:27.899Z,12.52
2023-05-12T22:39:00.173Z,11.90
2023-05-12T22:41:27.675Z,11.85
2023-05-12T22:43:56.909Z,12.95
2023-05-12T22:46:44.505Z,13.02
2023-05-12T22:49:12.026Z,12.13
2023-05-12T22:51:41.612Z,11.65
2023-05-12T22:54:09.144Z,13.02
2023-05-12T22:56:36.528Z,12.90
2023-05-12T22:59:04.102Z,12.50
2023-05-12T23:01:31.729Z,12.95
2023-05-12T23:04:05.026Z,12.63
2023-05-12T23:06:33.014Z,13.13
2023-05-12T23:09:00.915Z,12.35
2023-05-12T23:11:28.888Z,14.80
2023-05-12T23:13:56.357Z,12.48
2023-05-12T23:16:23.906Z,12.68
2023-05-12T23:18:51.529Z,11.52
2023-05-12T23:21:18.905Z,14.65
2023-05-12T23:23:46.324Z,13.23
2023-05-12T23:26:13.634Z,13.00
2023-05-12T23:28:40.988Z,12.20
2023-05-12T23:31:08.899Z,13.23
2023-05-12T23:33:44.633Z,13.38
2023-05-12T23:36:15.204Z,12.60
2023-05-12T23:38:44.121Z,15.68
2023-05-12T23:41:14.060Z,15.95
2023-05-12T23:43:43.457Z,13.48
2023-05-12T23:46:21.148Z,13.18
2023-05-12T23:48:48.812Z,12.55
2023-05-12T23:51:16.124Z,11.60
2023-05-12T23:53:43.660Z,12.25
2023-05-12T23:56:13.280Z,13.90
2023-05-12T23:58:41.177Z,12.85
